createdAt,value
2023-05-23T00:00:19.029Z,9.98
2023-05-23T00:02:47.143Z,7.45
2023-05-23T00:05:15.615Z,7.05
2023-05-23T00:07:42.416Z,7.72
2023-05-23T00:10:09.479Z,6.25
2023-05-23T00:12:37.730Z,7.68
2023-05-23T00:15:04.744Z,8.10
2023-05-23T00:17:31.466Z,9.18
2023-05-23T00:19:58.116Z,8.02
2023-05-23T00:22:24.981Z,7.85
2023-05-23T00:24:51.652Z,9.07
2023-05-23T00:27:18.252Z,7.30
2023-05-23T00:29:44.861Z,7.62
2023-05-23T00:32:12.347Z,7.32
2023-05-23T00:34:38.940Z,8.38
2023-05-23T00:37:05.569Z,7.90
2023-05-23T00:39:32.250Z,9.00
2023-05-23T00:41:58.906Z,7.53
2023-05-23T00:44:25.586Z,8.20
2023-05-23T00:46:57.798Z,8.05
2023-05-23T00:49:27.069Z,9.30
2023-05-23T00:51:54.030Z,8.32
2023-05-23T00:54:51.955Z,7.68
2023-05-23T00:57:18.619Z,9.77
2023-05-23T00:59:46.847Z,10.38
2023-05-23T01:02:13.924Z,6.97
2023-05-23T01:08:40.880Z,7.32
2023-05-23T01:11:18.834Z,8.20
2023-05-23T01:14:01.008Z,7.00
2023-05-23T01:16:48.624Z,8.45
2023-05-23T01:19:42.593Z,8.52
2023-05-23T01:22:22.626Z,8.52
2023-05-23T01:25:06.257Z,9.05
2023-05-23T01:27:53.084Z,8.32
2023-05-23T01:30:21.249Z,10.23
2023-05-23T01:32:50.785Z,9.35
2023-05-23T01:35:27.718Z,8.68
2023-05-23T02:10:23.974Z,8.63
2023-05-23T02:12:50.746Z,7.65
2023-05-23T02:15:17.543Z,8.80
2023-05-23T02:17:44.264Z,8.55
2023-05-23T02:20:11.237Z,8.23
2023-05-23T02:22:38.716Z,8.35
2023-05-23T02:25:06.132Z,6.57
2023-05-23T02:27:32.810Z,8.73
2023-05-23T02:29:59.465Z,8.25
2023-05-23T02:32:26.334Z,8.27
2023-05-23T02:34:54.492Z,8.10
2023-05-23T02:37:22.320Z,9.18
2023-05-23T02:39:48.929Z,8.70
2023-05-23T02:42:16.202Z,11.80
2023-05-23T02:44:42.826Z,7.70
2023-05-23T02:47:09.516Z,8.75
2023-05-23T02:49:36.205Z,7.47
2023-05-23T02:52:02.930Z,10.45
2023-05-23T02:54:29.555Z,10.77
2023-05-23T02:56:56.894Z,8.43
2023-05-23T02:59:23.604Z,8.27
2023-05-23T03:01:50.345Z,8.48
2023-05-23T03:04:16.986Z,6.97
2023-05-23T03:06:44.984Z,8.05
2023-05-23T03:09:11.761Z,7.65
2023-05-23T03:11:38.470Z,9.25
2023-05-23T03:14:05.141Z,8.07
2023-05-23T03:16:31.978Z,8.60
2023-05-23T03:18:58.890Z,8.35
2023-05-23T03:21:25.608Z,9.13
2023-05-23T03:23:52.367Z,7.90
2023-05-23T03:26:19.638Z,8.52
2023-05-23T03:28:46.394Z,7.05
2023-05-23T03:31:12.998Z,9.23
2023-05-23T03:33:40.655Z,8.82
2023-05-23T03:36:08.202Z,9.18
2023-05-23T03:38:35.035Z,9.23
2023-05-23T03:41:01.712Z,11.12
2023-05-23T03:43:28.363Z,8.52
2023-05-23T03:45:54.987Z,8.80
2023-05-23T03:48:21.602Z,8.88
2023-05-23T03:50:48.338Z,8.65
2023-05-23T03:53:15.041Z,9.07
2023-05-23T03:55:42.705Z,8.07
2023-05-23T03:58:09.710Z,9.20
2023-05-23T04:00:36.574Z,9.00
2023-05-23T04:03:03.401Z,11.68
2023-05-23T04:05:30.266Z,9.02
2023-05-23T04:07:57.106Z,8.68
2023-05-23T04:10:24.020Z,7.60
2023-05-23T04:27:22.372Z,11.32
2023-05-23T04:29:49.148Z,9.70
2023-05-23T04:32:18.449Z,9.00
2023-05-23T04:34:45.263Z,8.27
2023-05-23T04:37:12.309Z,8.68
2023-05-23T04:39:38.885Z,8.73
2023-05-23T04:47:24.757Z,13.15
2023-05-23T04:49:59.784Z,9.85
2023-05-23T04:58:10.922Z,9.38
2023-05-23T05:00:37.568Z,11.45
2023-05-23T05:03:04.273Z,11.68
2023-05-23T05:05:30.908Z,10.88
2023-05-23T05:07:57.612Z,10.30
2023-05-23T05:10:24.206Z,9.75
2023-05-23T05:12:50.801Z,13.23
2023-05-23T05:15:18.178Z,12.37
2023-05-23T05:17:46.456Z,12.32
2023-05-23T05:20:15.547Z,10.15
2023-05-23T05:22:43.173Z,11.70
2023-05-23T05:25:11.118Z,11.55
2023-05-23T05:27:38.548Z,11.93
2023-05-23T05:30:28.745Z,9.35
2023-05-23T05:32:58.235Z,10.38
2023-05-23T05:35:24.993Z,12.65
2023-05-23T05:37:57.668Z,10.73
2023-05-23T05:40:24.673Z,9.88
2023-05-23T05:42:51.649Z,10.10
2023-05-23T05:45:18.296Z,12.18
2023-05-23T05:47:45.896Z,10.07
2023-05-23T05:55:29.037Z,9.20
2023-05-23T05:57:55.861Z,8.60
2023-05-23T06:00:22.664Z,9.75
2023-05-23T06:02:52.694Z,7.72
2023-05-23T06:05:19.365Z,8.35
2023-05-23T06:07:48.793Z,8.25
2023-05-23T06:10:16.213Z,11.35
2023-05-23T06:12:43.072Z,9.13
2023-05-23T06:15:10.108Z,9.32
2023-05-23T06:17:39.561Z,8.27
2023-05-23T06:30:54.087Z,8.82
2023-05-23T06:33:20.977Z,7.82
2023-05-23T06:35:47.603Z,7.05
2023-05-23T06:38:15.815Z,7.60
2023-05-23T06:40:53.244Z,8.25
2023-05-23T06:43:19.878Z,9.30
2023-05-23T06:45:50.443Z,10.48
2023-05-23T06:56:09.060Z,9.48
2023-05-23T06:58:35.769Z,9.30
2023-05-23T07:01:02.456Z,11.10
2023-05-23T07:03:29.122Z,13.15
2023-05-23T07:05:55.911Z,15.60
2023-05-23T07:08:22.531Z,11.35
2023-05-23T07:10:49.456Z,13.62
2023-05-23T07:13:16.087Z,11.90
2023-05-23T07:15:45.771Z,12.02
2023-05-23T07:18:22.486Z,15.68
2023-05-23T07:23:26.064Z,13.13
2023-05-23T07:31:16.173Z,11.70
2023-05-23T07:33:42.935Z,8.95
2023-05-23T07:36:10.429Z,9.23
2023-05-23T07:42:39.910Z,15.98
2023-05-23T07:45:07.093Z,9.75
2023-05-23T07:47:33.806Z,9.85
2023-05-23T07:50:02.320Z,12.68
2023-05-23T07:52:32.586Z,10.43
2023-05-23T07:54:59.926Z,10.68
2023-05-23T07:57:41.246Z,10.82
2023-05-23T08:00:10.026Z,9.93
2023-05-23T08:02:36.689Z,9.95
2023-05-23T08:05:03.425Z,10.93
2023-05-23T08:11:35.881Z,10.38
2023-05-23T08:14:02.504Z,8.32
2023-05-23T08:16:29.087Z,8.02
2023-05-23T08:18:55.958Z,10.50
2023-05-23T08:21:23.832Z,8.35
2023-05-23T08:23:50.684Z,11.75
2023-05-23T08:26:17.360Z,12.68
2023-05-23T08:28:43.936Z,8.55
2023-05-23T08:31:11.610Z,8.35
2023-05-23T08:33:40.700Z,9.63
2023-05-23T08:36:07.469Z,9.80
2023-05-23T08:38:34.102Z,9.52
2023-05-23T08:41:02.134Z,7.72
2023-05-23T08:43:29.637Z,7.97
2023-05-23T08:45:57.239Z,11.80
2023-05-23T08:48:27.126Z,6.95
2023-05-23T08:50:53.778Z,9.45
2023-05-23T08:53:23.542Z,15.55
2023-05-23T08:55:55.696Z,11.82
2023-05-23T08:58:24.838Z,11.30
2023-05-23T09:00:53.777Z,10.77
2023-05-23T09:03:21.187Z,11.60
2023-05-23T09:05:51.681Z,8.05
2023-05-23T09:08:19.232Z,11.50
2023-05-23T09:10:46.056Z,8.65
2023-05-23T09:13:12.652Z,11.12
2023-05-23T09:15:39.382Z,9.63
2023-05-23T09:18:12.252Z,8.35
2023-05-23T09:20:44.623Z,12.35
2023-05-23T09:23:13.932Z,12.30
2023-05-23T09:25:47.235Z,10.68
2023-05-23T09:28:14.002Z,9.43
2023-05-23T09:30:43.115Z,9.88
2023-05-23T09:33:09.721Z,8.65
2023-05-23T09:35:39.126Z,9.23
2023-05-23T09:38:08.181Z,8.90
2023-05-23T09:40:35.091Z,11.50
2023-05-23T09:43:31.785Z,10.10
2023-05-23T09:57:56.793Z,6.72
2023-05-23T10:00:25.153Z,6.95
2023-05-23T10:03:11.119Z,10.02
2023-05-23T10:05:47.117Z,7.57
2023-05-23T10:08:29.883Z,6.55
2023-05-23T10:10:56.406Z,8.23
2023-05-23T10:13:26.974Z,9.90
2023-05-23T10:16:24.341Z,12.13
2023-05-23T10:18:58.567Z,12.52
2023-05-23T10:21:36.146Z,6.82
2023-05-23T10:24:04.661Z,8.25
2023-05-23T10:26:31.861Z,10.75
2023-05-23T10:29:02.458Z,7.32
2023-05-23T10:31:30.140Z,8.05
2023-05-23T10:34:08.738Z,7.70
2023-05-23T10:36:53.584Z,8.27
2023-05-23T10:39:41.773Z,8.25
2023-05-23T10:42:15.710Z,6.93
2023-05-23T10:44:42.409Z,6.85
2023-05-23T10:47:09.376Z,6.55
2023-05-23T10:49:46.570Z,10.50
2023-05-23T10:52:19.112Z,8.85
2023-05-23T10:54:52.536Z,6.40
2023-05-23T10:57:21.346Z,7.70
2023-05-23T10:59:51.266Z,7.40
2023-05-23T11:02:28.649Z,8.73
2023-05-23T11:05:24.755Z,8.35
2023-05-23T11:08:08.866Z,5.53
2023-05-23T11:10:55.654Z,9.65
2023-05-23T11:13:23.186Z,11.65
2023-05-23T11:15:50.568Z,6.62
2023-05-23T11:18:23.478Z,6.70
2023-05-23T11:20:54.283Z,7.47
2023-05-23T11:23:22.129Z,6.20
2023-05-23T11:25:53.640Z,6.50
2023-05-23T11:28:20.576Z,6.33
2023-05-23T11:30:51.094Z,6.90
2023-05-23T11:33:18.722Z,9.77
2023-05-23T11:35:49.753Z,10.73
2023-05-23T11:38:17.091Z,9.43
2023-05-23T11:40:46.593Z,7.07
2023-05-23T11:43:16.986Z,8.18
2023-05-23T11:45:44.218Z,8.40
2023-05-23T11:48:12.736Z,8.02
2023-05-23T11:50:50.514Z,8.95
2023-05-23T11:53:21.004Z,6.82
2023-05-23T11:55:55.649Z,6.72
2023-05-23T11:58:23.247Z,7.57
2023-05-23T12:00:49.969Z,9.20
2023-05-23T12:03:16.881Z,7.85
2023-05-23T12:05:45.575Z,11.43
2023-05-23T12:08:14.683Z,6.97
2023-05-23T12:10:57.386Z,6.62
2023-05-23T12:13:26.377Z,9.15
2023-05-23T12:15:58.628Z,5.18
2023-05-23T12:18:29.392Z,7.82
2023-05-23T12:21:00.170Z,7.62
2023-05-23T12:23:28.122Z,8.10
2023-05-23T12:25:56.560Z,7.28
2023-05-23T12:28:36.385Z,6.72
2023-05-23T12:31:19.234Z,6.10
2023-05-23T12:33:48.268Z,8.20
2023-05-23T12:36:23.187Z,9.80
2023-05-23T12:38:50.147Z,5.25
2023-05-23T12:41:19.891Z,7.05
2023-05-23T12:43:54.594Z,7.35
2023-05-23T12:46:22.194Z,6.70
2023-05-23T12:48:48.884Z,6.82
2023-05-23T12:51:16.209Z,8.57
2023-05-23T12:53:43.325Z,7.75
2023-05-23T12:56:09.916Z,7.07
2023-05-23T12:58:36.718Z,6.05
2023-05-23T13:01:03.868Z,7.28
2023-05-23T13:03:31.456Z,6.90
2023-05-23T13:05:58.590Z,6.57
2023-05-23T13:08:27.483Z,5.72
2023-05-23T13:10:54.342Z,6.72
2023-05-23T13:13:21.115Z,8.20
2023-05-23T13:15:51.659Z,5.62
2023-05-23T13:18:19.812Z,8.07
2023-05-23T13:20:46.874Z,6.82
2023-05-23T13:23:13.942Z,5.20
2023-05-23T13:25:41.264Z,6.87
2023-05-23T13:28:08.379Z,6.20
2023-05-23T13:30:34.975Z,7.68
2023-05-23T13:33:01.927Z,10.15
2023-05-23T13:35:28.900Z,6.18
2023-05-23T13:37:55.619Z,9.35
2023-05-23T13:40:23.416Z,8.85
2023-05-23T13:42:51.490Z,5.12
2023-05-23T13:45:19.402Z,4.97
2023-05-23T13:47:46.744Z,7.00
2023-05-23T13:50:13.627Z,7.32
2023-05-23T13:52:44.092Z,5.93
2023-05-23T13:58:06.091Z,8.63
2023-05-23T14:00:32.755Z,7.82
2023-05-23T14:02:59.383Z,5.43
2023-05-23T14:05:26.045Z,8.93
2023-05-23T14:07:53.234Z,7.05
2023-05-23T14:10:19.999Z,7.07
2023-05-23T14:13:58.509Z,6.15
2023-05-23T14:16:43.540Z,5.93
2023-05-23T14:19:10.478Z,4.12
2023-05-23T14:21:37.842Z,4.97
2023-05-23T14:24:04.682Z,4.90
2023-05-23T14:26:50.232Z,6.62
2023-05-23T14:29:16.828Z,7.20
2023-05-23T14:31:43.444Z,7.43
2023-05-23T14:34:10.097Z,5.18
2023-05-23T14:36:37.103Z,6.32
2023-05-23T14:39:05.555Z,8.23
2023-05-23T14:41:51.198Z,4.87
2023-05-23T14:44:17.831Z,6.62
2023-05-23T14:46:48.467Z,7.53
2023-05-23T14:49:18.585Z,5.07
2023-05-23T14:55:38.404Z,4.57
2023-05-23T14:58:06.356Z,5.35
2023-05-23T15:00:33.304Z,6.85
2023-05-23T15:02:59.965Z,5.10
2023-05-23T15:05:26.528Z,6.37
2023-05-23T15:07:53.578Z,5.82
2023-05-23T15:12:55.652Z,5.15
2023-05-23T15:15:23.632Z,5.18
2023-05-23T15:17:51.232Z,7.35
2023-05-23T15:20:18.280Z,6.32
2023-05-23T15:26:33.561Z,8.10
2023-05-23T15:29:00.172Z,5.50
2023-05-23T15:31:27.317Z,4.80
2023-05-23T15:33:53.981Z,6.45
2023-05-23T15:36:20.564Z,5.45
2023-05-23T15:38:47.285Z,6.78
2023-05-23T15:41:34.200Z,7.78
2023-05-23T15:44:00.880Z,5.60
2023-05-23T15:46:27.561Z,7.78
2023-05-23T15:48:54.266Z,8.65
2023-05-23T15:55:36.780Z,5.70
2023-05-23T15:58:03.748Z,5.07
2023-05-23T16:00:30.421Z,6.05
2023-05-23T16:02:57.048Z,6.30
2023-05-23T16:05:23.626Z,5.22
2023-05-23T16:07:50.326Z,8.07
2023-05-23T16:10:17.216Z,4.72
2023-05-23T16:12:43.893Z,5.35
2023-05-23T16:15:10.826Z,6.05
2023-05-23T16:17:37.875Z,5.50
2023-05-23T16:20:05.279Z,6.95
2023-05-23T16:22:31.894Z,6.90
2023-05-23T16:24:58.529Z,6.18
2023-05-23T16:27:25.090Z,7.20
2023-05-23T16:29:51.715Z,9.77
2023-05-23T16:32:18.371Z,6.05
2023-05-23T16:34:49.633Z,6.82
2023-05-23T16:37:19.401Z,4.30
2023-05-23T16:39:46.496Z,7.10
2023-05-23T16:42:13.158Z,6.85
2023-05-23T16:44:39.911Z,5.65
2023-05-23T16:47:09.589Z,9.05
2023-05-23T16:49:36.385Z,10.05
2023-05-23T16:52:03.404Z,6.70
2023-05-23T16:54:29.975Z,10.70
2023-05-23T16:56:57.701Z,6.57
2023-05-23T16:59:24.462Z,6.32
2023-05-23T17:01:51.336Z,5.18
2023-05-23T17:04:20.354Z,5.25
2023-05-23T17:06:54.458Z,6.35
2023-05-23T17:09:24.212Z,6.28
2023-05-23T17:11:51.057Z,5.25
2023-05-23T17:14:17.713Z,6.68
2023-05-23T17:16:44.433Z,5.78
2023-05-23T17:19:11.215Z,6.32
2023-05-23T17:21:37.827Z,7.70
2023-05-23T17:24:04.591Z,6.80
2023-05-23T17:26:31.277Z,7.15
2023-05-23T17:28:57.868Z,10.27
2023-05-23T17:31:24.606Z,7.87
2023-05-23T17:33:51.289Z,7.40
2023-05-23T17:36:18.196Z,7.07
2023-05-23T17:38:44.794Z,8.27
2023-05-23T17:41:11.872Z,7.25
2023-05-23T17:43:39.721Z,6.93
2023-05-23T17:46:07.900Z,6.60
2023-05-23T17:48:47.190Z,7.70
2023-05-23T17:51:15.466Z,7.40
2023-05-23T17:53:42.795Z,7.28
2023-05-23T17:56:10.149Z,7.37
2023-05-23T17:58:39.822Z,8.27
2023-05-23T18:01:08.531Z,9.73
2023-05-23T18:03:38.217Z,7.25
2023-05-23T18:06:06.831Z,6.20
2023-05-23T18:08:33.815Z,10.65
2023-05-23T18:11:00.712Z,9.68
2023-05-23T18:13:27.320Z,8.30
2023-05-23T18:16:07.140Z,7.32
2023-05-23T18:18:34.194Z,6.18
2023-05-23T18:21:10.225Z,5.97
2023-05-23T18:23:41.898Z,6.87
2023-05-23T18:28:57.241Z,5.75
2023-05-23T18:31:23.830Z,5.47
2023-05-23T18:33:50.448Z,5.47
2023-05-23T18:36:17.056Z,8.27
2023-05-23T18:38:43.726Z,7.53
2023-05-23T18:41:13.299Z,5.90
2023-05-23T18:43:41.683Z,6.85
2023-05-23T18:46:08.396Z,7.20
2023-05-23T18:48:36.032Z,7.87
2023-05-23T18:51:03.111Z,6.03
2023-05-23T18:53:31.254Z,4.47
2023-05-23T18:55:57.886Z,6.12
2023-05-23T18:58:24.480Z,5.72
2023-05-23T19:00:51.076Z,5.93
2023-05-23T19:03:17.806Z,5.10
2023-05-23T19:05:44.652Z,6.15
2023-05-23T19:08:11.317Z,5.72
2023-05-23T19:10:37.982Z,9.65
2023-05-23T19:13:05.064Z,6.55
2023-05-23T19:15:32.546Z,5.65
2023-05-23T19:17:59.159Z,8.40
2023-05-23T19:20:27.423Z,7.57
2023-05-23T19:22:54.066Z,8.48
2023-05-23T19:25:21.674Z,6.43
2023-05-23T19:27:48.546Z,4.80
2023-05-23T19:30:15.297Z,5.87
2023-05-23T19:32:41.977Z,8.07
2023-05-23T19:35:08.925Z,6.25
2023-05-23T19:37:35.747Z,6.90
2023-05-23T19:40:02.532Z,6.70
2023-05-23T19:42:29.160Z,7.40
2023-05-23T19:44:55.706Z,4.93
2023-05-23T19:47:22.555Z,5.62
2023-05-23T19:49:49.240Z,5.07
2023-05-23T19:52:16.029Z,5.70
2023-05-23T19:54:42.707Z,5.80
2023-05-23T19:57:09.435Z,5.93
2023-05-23T19:59:36.005Z,5.22
2023-05-23T20:02:02.618Z,6.32
2023-05-23T20:04:29.544Z,6.12
2023-05-23T20:06:56.651Z,5.65
2023-05-23T20:09:23.584Z,5.50
2023-05-23T20:11:50.208Z,8.73
2023-05-23T20:14:16.815Z,7.03
2023-05-23T20:16:43.495Z,6.62
2023-05-23T20:19:10.209Z,5.87
2023-05-23T20:21:36.938Z,4.68
2023-05-23T20:24:03.613Z,6.15
2023-05-23T20:26:30.285Z,6.40
2023-05-23T20:28:56.870Z,7.43
2023-05-23T20:31:23.519Z,8.98
2023-05-23T20:33:50.158Z,6.00
2023-05-23T20:36:19.612Z,6.00
2023-05-23T20:38:46.816Z,7.97
2023-05-23T20:41:14.226Z,7.75
2023-05-23T20:43:41.036Z,6.50
2023-05-23T20:46:09.845Z,5.78
2023-05-23T20:48:36.713Z,6.78
2023-05-23T20:51:05.717Z,7.03
2023-05-23T20:53:32.463Z,11.43
2023-05-23T20:55:59.846Z,7.22
2023-05-23T20:58:50.326Z,6.18
2023-05-23T21:01:17.040Z,6.80
2023-05-23T21:03:43.681Z,6.97
2023-05-23T21:06:10.357Z,6.20
2023-05-23T21:11:18.775Z,6.43
2023-05-23T21:13:47.841Z,6.20
2023-05-23T21:16:14.690Z,6.70
2023-05-23T21:21:23.973Z,8.25
2023-05-23T21:23:54.002Z,6.22
2023-05-23T21:26:45.107Z,8.32
2023-05-23T21:29:15.369Z,7.53
2023-05-23T21:31:42.245Z,5.97
2023-05-23T21:34:22.371Z,7.07
2023-05-23T21:41:09.132Z,5.70
2023-05-23T21:43:40.392Z,8.82
2023-05-23T21:46:07.374Z,5.87
2023-05-23T21:48:33.983Z,6.30
2023-05-23T21:51:02.841Z,5.40
2023-05-23T21:53:29.626Z,7.90
2023-05-23T21:56:20.805Z,5.75
2023-05-23T21:58:48.289Z,6.40
2023-05-23T22:01:15.034Z,6.03
2023-05-23T22:03:41.758Z,5.07
2023-05-23T22:09:51.286Z,4.65
2023-05-23T22:12:19.945Z,4.82
2023-05-23T22:14:47.794Z,5.37
2023-05-23T22:17:14.437Z,6.05
2023-05-23T22:19:41.826Z,4.97
2023-05-23T22:22:09.906Z,4.80
2023-05-23T22:24:39.103Z,4.72
2023-05-23T22:27:09.447Z,4.43
2023-05-23T22:29:38.332Z,4.87
2023-05-23T22:32:05.889Z,5.82
2023-05-23T22:34:32.896Z,6.12
2023-05-23T22:37:00.429Z,5.75
2023-05-23T22:39:52.164Z,7.80
2023-05-23T22:42:19.108Z,6.30
2023-05-23T22:44:47.798Z,6.25
2023-05-23T22:47:16.812Z,5.90
2023-05-23T22:53:43.933Z,6.55
2023-05-23T22:56:10.930Z,5.82
2023-05-23T22:58:46.911Z,8.82
2023-05-23T23:01:31.128Z,6.78
2023-05-23T23:04:03.528Z,7.28
